createdAt,value
2019-02-22T00:02:05.566Z,100486.00
2019-02-22T00:04:37.231Z,100495.00
2019-02-22T00:07:07.819Z,100494.00
2019-02-22T00:09:48.830Z,100497.00
2019-02-22T00:12:10.694Z,100484.00
2019-02-22T00:14:41.296Z,100497.00
2019-02-22T00:17:13.397Z,100500.00
2019-02-22T00:19:45.157Z,100496.00
2019-02-22T00:22:15.770Z,100500.00
2019-02-22T00:24:46.443Z,100499.00
2019-02-22T00:27:19.593Z,100489.00
2019-02-22T00:29:51.151Z,100489.00
2019-02-22T00:32:22.888Z,100498.00
2019-02-22T00:34:53.502Z,100485.00
2019-02-22T00:37:24.198Z,100499.00
2019-02-22T00:39:54.712Z,100494.00
2019-02-22T00:42:26.504Z,100492.00
2019-02-22T00:44:58.543Z,100496.00
2019-02-22T00:47:29.251Z,100504.00
2019-02-22T00:49:59.830Z,100498.00
2019-02-22T00:52:30.393Z,100501.00
2019-02-22T00:55:00.983Z,100503.00
2019-02-22T00:57:31.659Z,100507.00
2019-02-22T01:00:02.422Z,100490.00
2019-02-22T01:02:32.992Z,100498.00
2019-02-22T01:05:03.603Z,100500.00
2019-02-22T01:07:34.217Z,100498.00
2019-02-22T01:10:06.659Z,100494.00
2019-02-22T01:12:37.197Z,100504.00
2019-02-22T01:15:08.031Z,100507.00
2019-02-22T01:17:38.590Z,100506.00
2019-02-22T01:20:09.495Z,100509.00
2019-02-22T01:22:41.879Z,100518.00
2019-02-22T01:25:14.695Z,100523.00
2019-02-22T01:27:45.231Z,100518.00
2019-02-22T01:30:15.829Z,100525.00
2019-02-22T01:32:46.386Z,100524.00
2019-02-22T01:35:16.992Z,100519.00
2019-02-22T01:37:47.550Z,100526.00
2019-02-22T01:40:18.137Z,100529.00
2019-02-22T01:42:50.180Z,100530.00
2019-02-22T01:45:20.781Z,100531.00
2019-02-22T01:47:51.333Z,100529.00
2019-02-22T01:50:26.003Z,100533.00
2019-02-22T01:52:57.772Z,100532.00
2019-02-22T01:55:29.355Z,100538.00
2019-02-22T01:57:59.947Z,100546.00
2019-02-22T02:00:30.562Z,100535.00
2019-02-22T02:03:01.262Z,100543.00
2019-02-22T02:05:31.838Z,100546.00
2019-02-22T02:08:02.403Z,100555.00
2019-02-22T02:10:33.000Z,100545.00
2019-02-22T02:13:03.640Z,100551.00
2019-02-22T02:15:35.429Z,100552.00
2019-02-22T02:18:06.032Z,100562.00
2019-02-22T02:20:37.607Z,100560.00
2019-02-22T02:23:08.209Z,100567.00
2019-02-22T02:25:38.813Z,100561.00
2019-02-22T02:28:09.362Z,100562.00
2019-02-22T02:30:41.118Z,100560.00
2019-02-22T02:33:11.755Z,100562.00
2019-02-22T02:35:42.451Z,100563.00
2019-02-22T02:38:13.028Z,100569.00
2019-02-22T02:40:43.588Z,100569.00
2019-02-22T02:43:14.159Z,100564.00
2019-02-22T02:45:47.108Z,100578.00
2019-02-22T02:48:17.727Z,100574.00
2019-02-22T02:50:49.272Z,100582.00
2019-02-22T02:53:19.853Z,100588.00
2019-02-22T02:55:50.422Z,100603.00
2019-02-22T02:58:21.253Z,100593.00
2019-02-22T03:00:51.826Z,100603.00
2019-02-22T03:03:23.512Z,100607.00
2019-02-22T03:06:08.346Z,100604.00
2019-02-22T03:08:38.920Z,100604.00
2019-02-22T03:11:20.329Z,100613.00
2019-02-22T03:13:42.107Z,100623.00
2019-02-22T03:16:12.662Z,100632.00
2019-02-22T03:18:43.268Z,100625.00
2019-02-22T03:21:14.435Z,100625.00
2019-02-22T03:23:46.112Z,100634.00
2019-02-22T03:26:16.744Z,100633.00
2019-02-22T03:28:47.368Z,100633.00
2019-02-22T03:31:17.991Z,100631.00
2019-02-22T03:33:48.676Z,100640.00
2019-02-22T03:36:19.269Z,100651.00
2019-02-22T03:38:49.874Z,100644.00
2019-02-22T03:41:31.945Z,100654.00
2019-02-22T03:43:52.841Z,100659.00
2019-02-22T03:46:23.383Z,100665.00
2019-02-22T03:48:53.955Z,100671.00
2019-02-22T03:51:24.645Z,100674.00
2019-02-22T03:54:00.908Z,100669.00
2019-02-22T03:56:31.590Z,100678.00
2019-02-22T03:59:02.305Z,100683.00
2019-02-22T04:01:32.902Z,100674.00
2019-02-22T04:04:03.523Z,100683.00
2019-02-22T04:06:34.122Z,100689.00
2019-02-22T04:09:10.034Z,100692.00
2019-02-22T04:11:45.557Z,100687.00
2019-02-22T04:14:14.374Z,100689.00
2019-02-22T04:16:44.971Z,100699.00
2019-02-22T04:19:15.591Z,100697.00
2019-02-22T04:21:46.273Z,100702.00
2019-02-22T04:24:16.823Z,100710.00
2019-02-22T04:26:47.396Z,100716.00
2019-02-22T04:29:17.957Z,100721.00
2019-02-22T04:31:48.536Z,100721.00
2019-02-22T04:34:19.070Z,100724.00
2019-02-22T04:36:49.653Z,100732.00
2019-02-22T04:39:21.671Z,100733.00
2019-02-22T04:41:58.177Z,100728.00
2019-02-22T04:44:25.609Z,100733.00
2019-02-22T04:46:56.197Z,100733.00
2019-02-22T04:49:26.783Z,100738.00
2019-02-22T04:51:57.362Z,100744.00
2019-02-22T04:54:27.923Z,100748.00
2019-02-22T04:56:58.488Z,100746.00
2019-02-22T04:59:29.099Z,100747.00
2019-02-22T05:02:01.169Z,100742.00
2019-02-22T05:04:31.723Z,100739.00
2019-02-22T05:07:03.355Z,100752.00
2019-02-22T05:09:35.099Z,100763.00
2019-02-22T05:12:10.829Z,100760.00
2019-02-22T05:14:39.903Z,100776.00
2019-02-22T05:17:11.986Z,100775.00
2019-02-22T05:19:42.534Z,100773.00
2019-02-22T05:22:13.210Z,100774.00
2019-02-22T05:24:43.762Z,100778.00
2019-02-22T05:27:14.365Z,100777.00
2019-02-22T05:29:44.913Z,100776.00
2019-02-22T05:32:15.583Z,100794.00
2019-02-22T05:34:46.258Z,100790.00
2019-02-22T05:37:16.827Z,100791.00
2019-02-22T05:39:47.416Z,100790.00
2019-02-22T05:42:22.996Z,100808.00
2019-02-22T05:44:51.390Z,100814.00
2019-02-22T05:47:23.752Z,100818.00
2019-02-22T05:49:55.438Z,100818.00
2019-02-22T05:52:27.091Z,100830.00
2019-02-22T05:54:58.659Z,100833.00
2019-02-22T05:57:29.277Z,100845.00
2019-02-22T05:59:59.982Z,100850.00
2019-02-22T06:02:33.601Z,100858.00
2019-02-22T06:05:04.695Z,100858.00
2019-02-22T06:07:35.250Z,100859.00
2019-02-22T06:10:06.216Z,100871.00
2019-02-22T06:12:36.793Z,100869.00
2019-02-22T06:15:07.896Z,100880.00
2019-02-22T06:17:38.431Z,100881.00
2019-02-22T06:20:09.405Z,100881.00
2019-02-22T06:22:40.055Z,100882.00
2019-02-22T06:25:10.662Z,100904.00
2019-02-22T06:27:41.221Z,100903.00
2019-02-22T06:30:11.793Z,100908.00
2019-02-22T06:32:42.646Z,100914.00
2019-02-22T06:35:13.422Z,100922.00
2019-02-22T06:37:45.916Z,100927.00
2019-02-22T06:40:16.507Z,100931.00
2019-02-22T06:42:47.093Z,100943.00
2019-02-22T06:45:21.296Z,100951.00
2019-02-22T06:47:51.866Z,100953.00
2019-02-22T06:50:33.148Z,100961.00
2019-02-22T06:52:55.919Z,100963.00
2019-02-22T06:55:26.555Z,100970.00
2019-02-22T06:57:57.287Z,100973.00
2019-02-22T07:00:29.422Z,100975.00
2019-02-22T07:02:59.998Z,100990.00
2019-02-22T07:05:30.604Z,100991.00
2019-02-22T07:08:01.264Z,101000.00
2019-02-22T07:10:50.743Z,100990.00
2019-02-22T07:13:21.533Z,101007.00
2019-02-22T07:15:52.096Z,101005.00
2019-02-22T07:18:22.703Z,101009.00
2019-02-22T07:20:53.256Z,101006.00
2019-02-22T07:23:23.869Z,101015.00
2019-02-22T07:25:55.668Z,101028.00
2019-02-22T07:28:27.383Z,101027.00
2019-02-22T07:30:57.942Z,101034.00
2019-02-22T07:33:28.501Z,101036.00
2019-02-22T07:36:00.222Z,101044.00
2019-02-22T07:38:30.810Z,101053.00
2019-02-22T07:41:01.354Z,101058.00
2019-02-22T07:43:31.937Z,101069.00
2019-02-22T07:46:02.496Z,101077.00
2019-02-22T07:48:33.112Z,101077.00
2019-02-22T07:51:05.463Z,101079.00
2019-02-22T07:53:36.105Z,101079.00
2019-02-22T07:56:06.655Z,101092.00
2019-02-22T07:58:38.376Z,101127.00
2019-02-22T08:01:09.037Z,101166.00
2019-02-22T08:03:39.612Z,101135.00
2019-02-22T08:06:10.180Z,101152.00
2019-02-22T08:08:40.776Z,101146.00
2019-02-22T08:11:11.487Z,101158.00
2019-02-22T08:13:43.848Z,101164.00
2019-02-22T08:16:14.452Z,101169.00
2019-02-22T08:18:47.472Z,101172.00
2019-02-22T08:21:18.149Z,101196.00
2019-02-22T08:23:48.772Z,101194.00
2019-02-22T08:26:19.429Z,101196.00
2019-02-22T08:28:50.077Z,101191.00
2019-02-22T08:31:20.751Z,101211.00
2019-02-22T08:33:51.555Z,101204.00
2019-02-22T08:36:22.199Z,101212.00
2019-02-22T08:38:55.858Z,101221.00
2019-02-22T08:41:27.572Z,101232.00
2019-02-22T08:43:58.270Z,101231.00
2019-02-22T08:46:28.878Z,101245.00
2019-02-22T08:48:59.467Z,101246.00
2019-02-22T08:51:30.163Z,101242.00
2019-02-22T08:54:02.347Z,101253.00
2019-02-22T08:56:32.985Z,101254.00
2019-02-22T08:59:03.572Z,101258.00
2019-02-22T09:01:35.881Z,101256.00
2019-02-22T09:04:06.570Z,101269.00
2019-02-22T09:06:37.343Z,101277.00
2019-02-22T09:09:08.027Z,101280.00
2019-02-22T09:11:38.697Z,101286.00
2019-02-22T09:14:09.238Z,101281.00
2019-02-22T09:16:39.839Z,101293.00
2019-02-22T09:19:10.386Z,101293.00
2019-02-22T09:21:41.108Z,101302.00
2019-02-22T09:24:11.652Z,101317.00
2019-02-22T09:26:42.249Z,101314.00
2019-02-22T09:29:12.823Z,101319.00
2019-02-22T09:31:43.379Z,101310.00
2019-02-22T09:34:15.781Z,101344.00
2019-02-22T09:36:46.329Z,101334.00
2019-02-22T09:39:16.879Z,101355.00
2019-02-22T09:41:47.455Z,101367.00
2019-02-22T09:44:19.508Z,101362.00
2019-02-22T09:46:50.154Z,101377.00
2019-02-22T09:49:20.777Z,101379.00
2019-02-22T09:51:51.311Z,101405.00
2019-02-22T09:54:22.096Z,101386.00
2019-02-22T09:56:52.650Z,101390.00
2019-02-22T09:59:23.506Z,101403.00
2019-02-22T10:01:54.055Z,101400.00
2019-02-22T10:04:24.764Z,101399.00
2019-02-22T10:06:55.318Z,101411.00
2019-02-22T10:09:27.715Z,101406.00
2019-02-22T10:11:58.333Z,101417.00
2019-02-22T10:14:28.934Z,101415.00
2019-02-22T10:16:59.478Z,101425.00
2019-02-22T10:19:30.175Z,101422.00
2019-02-22T10:22:00.795Z,101434.00
2019-02-22T10:24:31.723Z,101438.00
2019-02-22T10:27:02.354Z,101445.00
2019-02-22T10:29:33.318Z,101459.00
2019-02-22T10:32:03.915Z,101463.00
2019-02-22T10:34:34.589Z,101474.00
2019-02-22T10:37:05.172Z,101476.00
2019-02-22T10:39:35.749Z,101482.00
2019-02-22T10:42:08.205Z,101489.00
2019-02-22T10:44:39.085Z,101494.00
2019-02-22T10:47:09.854Z,101498.00
2019-02-22T10:49:59.535Z,101495.00
2019-02-22T10:52:30.288Z,101497.00
2019-02-22T10:55:00.942Z,101511.00
2019-02-22T10:57:31.699Z,101505.00
2019-02-22T11:00:02.481Z,101500.00
2019-02-22T11:02:33.116Z,101504.00
2019-02-22T11:05:03.687Z,101517.00
2019-02-22T11:07:34.272Z,101529.00
2019-02-22T11:10:07.191Z,101518.00
2019-02-22T11:12:37.827Z,101549.00
2019-02-22T11:15:12.114Z,101524.00
2019-02-22T11:17:42.696Z,101535.00
2019-02-22T11:20:14.021Z,101518.00
2019-02-22T11:22:46.089Z,101527.00
2019-02-22T11:25:19.097Z,101534.00
2019-02-22T11:27:50.678Z,101533.00
2019-02-22T11:30:21.338Z,101547.00
2019-02-22T11:32:53.431Z,101553.00
2019-02-22T11:35:25.097Z,101556.00
2019-02-22T11:37:56.062Z,101564.00
2019-02-22T11:40:27.024Z,101561.00
2019-02-22T11:42:57.693Z,101563.00
2019-02-22T11:45:28.246Z,101563.00
2019-02-22T11:48:08.659Z,101555.00
2019-02-22T11:50:31.525Z,101569.00
2019-02-22T11:53:03.441Z,101572.00
2019-02-22T11:55:35.301Z,101566.00
2019-02-22T11:58:05.931Z,101580.00
2019-02-22T12:00:37.876Z,101591.00
2019-02-22T12:03:23.521Z,101592.00
2019-02-22T12:05:41.870Z,101596.00
2019-02-22T12:08:12.436Z,101603.00
2019-02-22T12:10:42.975Z,101613.00
2019-02-22T12:13:13.558Z,101609.00
2019-02-22T12:15:45.593Z,101602.00
2019-02-22T12:18:16.179Z,101614.00
2019-02-22T12:20:48.225Z,101620.00
2019-02-22T12:23:19.137Z,101619.00
2019-02-22T12:25:49.691Z,101631.00
2019-02-22T12:28:20.284Z,101634.00
2019-02-22T12:30:51.935Z,101634.00
2019-02-22T12:33:22.840Z,101636.00
2019-02-22T12:35:53.473Z,101640.00
2019-02-22T12:38:24.044Z,101643.00
2019-02-22T12:40:56.103Z,101657.00
2019-02-22T12:43:26.665Z,101650.00
2019-02-22T12:45:57.242Z,101665.00
2019-02-22T12:48:29.648Z,101667.00
2019-02-22T12:51:00.214Z,101676.00
2019-02-22T12:53:30.895Z,101674.00
2019-02-22T12:56:02.603Z,101673.00
2019-02-22T12:58:33.319Z,101668.00
2019-02-22T13:01:03.989Z,101679.00
2019-02-22T13:03:34.555Z,101676.00
2019-02-22T13:06:05.204Z,101682.00
2019-02-22T13:08:35.807Z,101690.00
2019-02-22T13:11:06.444Z,101692.00
2019-02-22T13:13:37.011Z,101710.00
2019-02-22T13:16:09.108Z,101714.00
2019-02-22T13:18:39.735Z,101719.00
2019-02-22T13:21:10.320Z,101729.00
2019-02-22T13:23:41.962Z,101727.00
2019-02-22T13:26:13.729Z,101741.00
2019-02-22T13:28:44.444Z,101742.00
2019-02-22T13:31:15.053Z,101748.00
2019-02-22T13:33:45.676Z,101749.00
2019-02-22T13:36:16.302Z,101756.00
2019-02-22T13:38:47.229Z,101744.00
2019-02-22T13:41:17.865Z,101754.00
2019-02-22T13:43:48.614Z,101761.00
2019-02-22T13:46:21.729Z,101762.00
2019-02-22T13:48:52.326Z,101763.00
2019-02-22T13:51:23.016Z,101770.00
2019-02-22T13:53:54.833Z,101777.00
2019-02-22T13:56:29.614Z,101770.00
2019-02-22T13:58:57.799Z,101782.00
2019-02-22T14:01:28.411Z,101781.00
2019-02-22T14:03:58.982Z,101788.00
2019-02-22T14:06:29.869Z,101782.00
2019-02-22T14:09:03.706Z,101784.00
2019-02-22T14:11:38.691Z,101788.00
2019-02-22T14:14:09.365Z,101787.00
2019-02-22T14:16:40.632Z,101786.00
2019-02-22T14:19:15.639Z,101792.00
2019-02-22T14:21:49.714Z,101787.00
2019-02-22T14:24:20.645Z,101798.00
2019-02-22T14:26:51.489Z,101802.00
2019-02-22T14:29:22.926Z,101800.00
2019-02-22T14:31:53.803Z,101800.00
2019-02-22T14:34:24.511Z,101803.00
2019-02-22T14:36:58.371Z,101818.00
2019-02-22T14:39:32.269Z,101814.00
2019-02-22T14:42:04.703Z,101811.00
2019-02-22T14:44:35.645Z,101807.00
2019-02-22T14:47:07.363Z,101816.00
2019-02-22T14:49:38.022Z,101821.00
2019-02-22T14:52:08.634Z,101821.00
2019-02-22T14:54:39.635Z,101813.00
2019-02-22T14:57:10.491Z,101807.00
2019-02-22T14:59:44.119Z,101820.00
2019-02-22T15:02:15.268Z,101820.00
2019-02-22T15:04:45.955Z,101831.00
2019-02-22T15:07:16.647Z,101822.00
2019-02-22T15:09:47.254Z,101817.00
2019-02-22T15:12:25.956Z,101837.00
2019-02-22T15:14:56.729Z,101839.00
2019-02-22T15:17:30.678Z,101839.00
2019-02-22T15:20:01.311Z,101848.00
2019-02-22T15:22:31.941Z,101844.00
2019-02-22T15:25:02.517Z,101849.00
2019-02-22T15:27:33.123Z,101862.00
2019-02-22T15:30:03.866Z,101863.00
2019-02-22T15:32:35.936Z,101858.00
2019-02-22T15:35:10.138Z,101876.00
2019-02-22T15:37:43.352Z,101870.00
2019-02-22T15:40:14.396Z,101875.00
2019-02-22T15:42:45.092Z,101873.00
2019-02-22T15:45:16.349Z,101878.00
2019-02-22T15:47:48.823Z,101875.00
2019-02-22T15:50:19.312Z,101877.00
2019-02-22T15:52:50.639Z,101879.00
2019-02-22T15:55:21.312Z,101889.00
2019-02-22T15:57:54.469Z,101895.00
2019-02-22T16:00:27.569Z,101900.00
2019-02-22T16:02:58.469Z,101893.00
2019-02-22T16:05:36.197Z,101899.00
2019-02-22T16:08:07.918Z,101908.00
2019-02-22T16:10:42.082Z,101909.00
2019-02-22T16:13:12.720Z,101917.00
2019-02-22T16:15:47.175Z,101917.00
2019-02-22T16:18:21.597Z,101925.00
2019-02-22T16:20:53.497Z,101923.00
2019-02-22T16:23:28.409Z,101933.00
2019-02-22T16:25:59.019Z,101924.00
2019-02-22T16:28:30.159Z,101928.00
2019-02-22T16:31:00.820Z,101939.00
2019-02-22T16:33:31.707Z,101935.00
2019-02-22T16:36:02.432Z,101941.00
2019-02-22T16:38:34.985Z,101939.00
2019-02-22T16:41:05.703Z,101934.00
2019-02-22T16:43:36.271Z,101933.00
2019-02-22T16:46:06.866Z,101932.00
2019-02-22T16:48:37.519Z,101947.00
2019-02-22T16:51:08.147Z,101950.00
2019-02-22T16:53:41.285Z,101957.00
2019-02-22T16:56:17.345Z,101957.00
2019-02-22T16:58:48.504Z,101950.00
2019-02-22T17:01:19.335Z,101952.00
2019-02-22T17:03:51.639Z,101946.00
2019-02-22T17:06:27.612Z,101955.00
2019-02-22T17:08:58.349Z,101952.00
2019-02-22T17:11:29.086Z,101964.00
2019-02-22T17:14:01.108Z,101973.00
2019-02-22T17:16:31.734Z,101971.00
2019-02-22T17:19:02.370Z,101968.00
2019-02-22T17:21:32.955Z,101968.00
2019-02-22T17:24:06.109Z,101972.00
2019-02-22T17:26:36.769Z,101978.00
2019-02-22T17:29:08.753Z,101971.00
2019-02-22T17:31:39.360Z,101982.00
2019-02-22T17:34:11.549Z,101971.00
2019-02-22T17:36:42.408Z,101978.00
2019-02-22T17:39:14.069Z,101975.00
2019-02-22T17:41:44.675Z,101984.00
2019-02-22T17:44:15.308Z,101984.00
2019-02-22T17:46:57.382Z,101993.00
2019-02-22T17:49:20.024Z,101997.00
2019-02-22T17:51:52.405Z,102003.00
2019-02-22T17:54:23.168Z,102003.00
2019-02-22T17:56:55.134Z,102011.00
2019-02-22T17:59:25.797Z,102011.00
2019-02-22T18:01:56.497Z,102018.00
2019-02-22T18:04:27.208Z,102018.00
2019-02-22T18:06:57.798Z,102011.00
2019-02-22T18:09:29.892Z,102019.00
2019-02-22T18:12:01.639Z,102022.00
2019-02-22T18:14:33.406Z,102033.00
2019-02-22T18:17:08.760Z,102029.00
2019-02-22T18:19:39.803Z,102051.00
2019-02-22T18:22:10.474Z,102045.00
2019-02-22T18:24:42.422Z,102046.00
2019-02-22T18:27:13.109Z,102046.00
2019-02-22T18:29:43.778Z,102042.00
2019-02-22T18:32:16.449Z,102054.00
2019-02-22T18:34:47.222Z,102048.00
2019-02-22T18:37:18.021Z,102053.00
2019-02-22T18:39:49.731Z,102055.00
2019-02-22T18:42:20.584Z,102055.00
2019-02-22T18:44:52.498Z,102049.00
2019-02-22T18:47:23.092Z,102052.00
2019-02-22T18:49:53.709Z,102048.00
2019-02-22T18:52:24.357Z,102058.00
2019-02-22T18:54:54.925Z,102059.00
2019-02-22T18:57:25.661Z,102064.00
2019-02-22T18:59:56.457Z,102056.00
2019-02-22T19:02:28.844Z,102059.00
2019-02-22T19:04:59.482Z,102060.00
2019-02-22T19:07:30.229Z,102055.00
2019-02-22T19:10:01.889Z,102070.00
2019-02-22T19:12:32.523Z,102076.00
2019-02-22T19:15:03.090Z,102080.00
2019-02-22T19:17:34.872Z,102074.00
2019-02-22T19:20:08.274Z,102074.00
2019-02-22T19:22:39.316Z,102081.00
2019-02-22T19:25:10.578Z,102083.00
2019-02-22T19:27:41.172Z,102079.00
2019-02-22T19:30:16.869Z,102088.00
2019-02-22T19:32:47.562Z,102076.00
2019-02-22T19:35:19.486Z,102084.00
2019-02-22T19:37:50.481Z,102092.00
2019-02-22T19:40:22.744Z,102101.00
2019-02-22T19:42:54.088Z,102102.00
2019-02-22T19:45:24.653Z,102105.00
2019-02-22T19:47:57.471Z,102105.00
2019-02-22T19:50:28.222Z,102102.00
2019-02-22T19:52:58.868Z,102113.00
2019-02-22T19:55:30.021Z,102116.00
2019-02-22T19:58:02.548Z,102111.00
2019-02-22T20:00:33.348Z,102111.00
2019-02-22T20:03:03.934Z,102112.00
2019-02-22T20:05:34.595Z,102111.00
2019-02-22T20:08:06.376Z,102111.00
2019-02-22T20:10:37.298Z,102130.00
2019-02-22T20:13:08.452Z,102119.00
2019-02-22T20:15:40.161Z,102117.00
2019-02-22T20:18:10.771Z,102126.00
2019-02-22T20:20:41.469Z,102128.00
2019-02-22T20:23:12.149Z,102138.00
2019-02-22T20:25:42.773Z,102130.00
2019-02-22T20:28:15.860Z,102133.00
2019-02-22T20:30:46.457Z,102132.00
2019-02-22T20:33:17.177Z,102140.00
2019-02-22T20:35:47.903Z,102131.00
2019-02-22T20:38:18.475Z,102137.00
2019-02-22T20:40:50.118Z,102148.00
2019-02-22T20:43:20.677Z,102146.00
2019-02-22T20:45:51.364Z,102138.00
2019-02-22T20:48:22.000Z,102145.00
2019-02-22T20:50:52.665Z,102151.00
2019-02-22T20:53:25.098Z,102157.00
2019-02-22T20:55:55.680Z,102156.00
2019-02-22T20:58:26.344Z,102165.00
2019-02-22T21:00:58.764Z,102163.00
2019-02-22T21:03:29.309Z,102167.00
2019-02-22T21:06:00.018Z,102169.00
2019-02-22T21:08:30.605Z,102178.00
2019-02-22T21:11:01.200Z,102179.00
2019-02-22T21:13:31.762Z,102177.00
2019-02-22T21:16:02.367Z,102183.00
2019-02-22T21:18:33.088Z,102181.00
2019-02-22T21:21:04.739Z,102176.00
2019-02-22T21:23:35.374Z,102190.00
2019-02-22T21:26:07.499Z,102188.00
2019-02-22T21:28:38.209Z,102188.00
2019-02-22T21:31:08.896Z,102185.00
2019-02-22T21:33:39.559Z,102181.00
2019-02-22T21:36:10.103Z,102186.00
2019-02-22T21:38:42.831Z,102176.00
2019-02-22T21:41:16.362Z,102183.00
2019-02-22T21:43:47.172Z,102185.00
2019-02-22T21:46:17.739Z,102190.00
2019-02-22T21:48:48.361Z,102189.00
2019-02-22T21:51:18.907Z,102192.00
2019-02-22T21:53:49.594Z,102192.00
2019-02-22T21:56:20.270Z,102187.00
2019-02-22T21:58:50.894Z,102186.00
2019-02-22T22:01:21.526Z,102191.00
2019-02-22T22:03:52.201Z,102189.00
2019-02-22T22:06:22.736Z,102180.00
2019-02-22T22:08:55.427Z,102185.00
2019-02-22T22:11:25.761Z,102183.00
2019-02-22T22:13:58.836Z,102175.00
2019-02-22T22:16:29.474Z,102174.00
2019-02-22T22:19:00.046Z,102170.00
2019-02-22T22:21:30.605Z,102165.00
2019-02-22T22:24:02.995Z,102169.00
2019-02-22T22:26:35.368Z,102179.00
2019-02-22T22:29:05.932Z,102167.00
2019-02-22T22:31:36.522Z,102174.00
2019-02-22T22:34:07.138Z,102174.00
2019-02-22T22:36:39.298Z,102184.00
2019-02-22T22:39:11.514Z,102189.00
2019-02-22T22:41:42.201Z,102188.00
2019-02-22T22:44:12.868Z,102184.00
2019-02-22T22:46:43.646Z,102192.00
2019-02-22T22:49:14.318Z,102199.00
2019-02-22T22:51:45.019Z,102199.00
2019-02-22T22:54:15.615Z,102199.00
2019-02-22T22:56:46.183Z,102208.00
2019-02-22T22:59:16.840Z,102224.00
2019-02-22T23:01:47.731Z,102219.00
2019-02-22T23:04:18.298Z,102229.00
2019-02-22T23:06:50.341Z,102226.00
2019-02-22T23:09:23.183Z,102226.00
2019-02-22T23:11:53.956Z,102237.00
2019-02-22T23:14:24.543Z,102244.00
2019-02-22T23:16:55.139Z,102250.00
2019-02-22T23:19:28.613Z,102247.00
2019-02-22T23:22:00.474Z,102246.00
2019-02-22T23:24:32.244Z,102257.00
2019-02-22T23:27:03.988Z,102265.00
2019-02-22T23:29:34.653Z,102272.00
2019-02-22T23:32:05.262Z,102272.00
2019-02-22T23:34:35.898Z,102287.00
2019-02-22T23:37:06.519Z,102277.00
2019-02-22T23:39:37.221Z,102281.00
2019-02-22T23:42:07.908Z,102275.00
2019-02-22T23:44:38.639Z,102272.00
2019-02-22T23:47:09.229Z,102272.00
2019-02-22T23:49:39.974Z,102263.00
2019-02-22T23:52:10.531Z,102259.00
2019-02-22T23:54:42.580Z,102260.00
2019-02-22T23:57:15.788Z,102248.00
2019-02-22T23:59:47.471Z,102243.00
